Iberica Hav — C6YI3 — position and weather

sailwx.info

Track history (hours):
 
Tides and Currents Weather Stations Pressure Air Temp Water Temp Dewpoint Dewpoint Depression Visibility Wind Speed Wind Dir Waves Ship Positions

Iberica Hav

Last reported at 2015-Aug-29 18:33 UTC. Time now 2015-Aug-29 19:01 UTC.
Position N 53°55' E 009°12'.

Length 88 m; draft 2.7 m.

Type: Cargo ship. MMSI: 311034400.

Date/timePositionNaut miles runAvg speedWind from/ knotsBaromVisibWave heightAir tempDewpointWater temp
2015-Aug-29 18:33N 53°55' E 009°12'0 0.0
2015-Aug-29 17:30N 53°55' E 009°12'0 0.0
2015-Aug-29 16:33N 53°55' E 009°12'0 0.0
2015-Aug-29 15:30N 53°55' E 009°12'0 0.0
2015-Aug-29 14:33N 53°55' E 009°12'0 0.0
2015-Aug-29 13:30N 53°55' E 009°12'0 0.0
2015-Aug-29 12:30N 53°55' E 009°12'0 0.0
2015-Aug-29 11:33N 53°55' E 009°12'0 0.0
2015-Aug-29 10:30N 53°55' E 009°12'0 0.0
2015-Aug-29 09:33N 53°55' E 009°12'0 0.0
2015-Aug-29 08:27N 53°55' E 009°12'0 0.0
2015-Aug-29 07:33N 53°55' E 009°12'0 0.0
2015-Aug-29 06:33N 53°55' E 009°12'0 0.0
2015-Aug-29 05:33N 53°55' E 009°12'0 0.0
2015-Aug-29 04:30N 53°55' E 009°12'0 0.0
2015-Aug-29 03:33N 53°55' E 009°12'0 0.0
2015-Aug-29 02:33N 53°55' E 009°12'0 0.0
2015-Aug-29 01:33N 53°55' E 009°12'0 0.0
2015-Aug-29 00:30N 53°55' E 009°12'0 0.0
2015-Aug-28 23:21N 53°55' E 009°12'0 0.0
2015-Aug-28 22:30N 53°55' E 009°12'0 0.0
2015-Aug-28 21:33N 53°55' E 009°12'0 0.0
2015-Aug-28 20:33N 53°55' E 009°12'0 0.0
2015-Aug-28 19:33N 53°55' E 009°12'0 0.0
2015-Aug-28 18:33N 53°55' E 009°12'0 0.0
2015-Aug-28 17:33N 53°55' E 009°12'0 0.0
2015-Aug-28 16:33N 53°55' E 009°12'0 0.0
2015-Aug-28 15:33N 53°55' E 009°12'0 0.0
2015-Aug-28 14:33N 53°55' E 009°12'0 0.0
2015-Aug-28 13:27N 53°55' E 009°12'0 0.0
2015-Aug-28 12:33N 53°55' E 009°12'0 0.0
2015-Aug-28 11:33N 53°55' E 009°12'0 0.0
2015-Aug-28 10:33N 53°55' E 009°12'0 0.0
2015-Aug-28 09:33N 53°55' E 009°12'0 0.0
2015-Aug-28 08:33N 53°55' E 009°12'0 0.0
2015-Aug-28 07:33N 53°55' E 009°12'0 0.0
2015-Aug-28 06:15N 53°55' E 009°12'0 0.0
2015-Aug-28 05:30N 53°55' E 009°12'0 0.0
2015-Aug-28 04:30N 53°55' E 009°12'0 0.0
2015-Aug-28 03:33N 53°55' E 009°12'0 0.0
2015-Aug-28 02:33N 53°55' E 009°12'0 0.0
2015-Aug-28 01:33N 53°55' E 009°12'0 0.0
2015-Aug-28 00:33N 53°55' E 009°12'0 0.0
2015-Aug-27 23:33N 53°55' E 009°12'0 0.0
2015-Aug-27 22:33N 53°55' E 009°12'0 0.0
2015-Aug-27 21:33N 53°55' E 009°12'0 0.0
2015-Aug-27 20:33N 53°55' E 009°12'0 0.0
2015-Aug-27 19:33N 53°55' E 009°12'0 0.0
2015-Aug-27 18:33N 53°55' E 009°12'0 0.0
2015-Aug-27 17:33N 53°55' E 009°12'0 0.0
2015-Aug-27 16:29N 53°55' E 009°12'0 0.0
2015-Aug-27 15:33N 53°55' E 009°12'0 0.0
2015-Aug-27 14:33N 53°55' E 009°12'0 0.0
2015-Aug-27 13:33N 53°55' E 009°12'0 0.0
2015-Aug-27 12:29N 53°55' E 009°12'0 0.0
2015-Aug-27 11:30N 53°55' E 009°12'0 0.0
2015-Aug-27 10:33N 53°55' E 009°12'0 0.0
2015-Aug-27 09:33N 53°55' E 009°12'0 0.0
2015-Aug-27 08:30N 53°55' E 009°12'0 0.0
2015-Aug-27 07:27N 53°55' E 009°12'0 0.0
2015-Aug-27 06:33N 53°55' E 009°12'0 0.0
2015-Aug-27 05:32N 53°55' E 009°12'0 0.2
2015-Aug-27 04:33N 53°55' E 009°12'2 2.2
2015-Aug-27 03:33N 53°53' E 009°11'9 8.9
2015-Aug-27 02:33N 53°48' E 009°23'10 9.7
2015-Aug-27 01:33N 53°39' E 009°31'9 9.1
2015-Aug-27 00:34N 53°34' E 009°43'8 8.2
2015-Aug-26 23:34N 53°32' E 009°56'0 0.4
2015-Aug-26 22:31N 53°31' E 009°57'0 0.0
2015-Aug-26 21:19N 53°31' E 009°57'0 0.0
2015-Aug-26 20:31N 53°31' E 009°57'0 0.0
2015-Aug-26 19:28N 53°31' E 009°57'0 0.0
2015-Aug-26 18:31N 53°31' E 009°57'0 0.0
2015-Aug-26 17:28N 53°31' E 009°57'0 0.0
2015-Aug-26 16:31N 53°31' E 009°57'0 0.0
2015-Aug-26 15:31N 53°31' E 009°57'0 0.0
2015-Aug-26 14:28N 53°31' E 009°57'0 0.0
2015-Aug-26 13:28N 53°31' E 009°57'0 0.0
2015-Aug-26 12:32N 53°31' E 009°57'1 1.4
2015-Aug-26 11:33N 53°32' E 009°56'8 8.3
2015-Aug-26 10:33N 53°34' E 009°42'6 0.4
2015-Aug-25 20:17N 53°37' E 009°33'  
2015-Aug-23 07:28N 53°37' E 009°34'0 0.0
2015-Aug-23 06:31N 53°37' E 009°34'7 7.4
2015-Aug-23 05:33N 53°43' E 009°28'1010.3
2015-Aug-23 04:33N 53°51' E 009°18'6 5.7
2015-Aug-23 03:33N 53°54' E 009°09'6 6.0
2015-Aug-23 02:32N 53°58' E 009°16'10 8.3
2015-Aug-23 01:22N 54°08' E 009°20'9 7.4
2015-Aug-23 00:08N 54°12' E 009°33'5 6.2
2015-Aug-22 23:24N 54°16' E 009°38'5 5.6
2015-Aug-22 22:33N 54°19' E 009°43'5 5.1
2015-Aug-22 21:33N 54°22' E 009°51'8 7.8
2015-Aug-22 20:33N 54°22' E 010°04'3 2.6
2015-Aug-22 19:33N 54°22' E 010°08'2 1.8
2015-Aug-22 18:33N 54°23' E 010°11'8 8.4
2015-Aug-22 17:33N 54°30' E 010°19'9 8.9
2015-Aug-22 16:33N 54°34' E 010°33'9 8.3
2015-Aug-22 15:30N 54°36' E 010°47'11 7.8
2015-Aug-22 14:05N 54°47' E 010°51'4 7.4
2015-Aug-22 13:30N 54°51' E 010°52'7 7.3
2015-Aug-22 12:33N 54°57' E 010°57'8 7.9
2015-Aug-22 11:31N 55°05' E 011°02'7 7.5
2015-Aug-22 10:32N 55°12' E 011°05'24 7.8
2015-Aug-22 07:30N 55°34' E 010°49'7 7.0
2015-Aug-22 06:33N 55°40' E 010°46'8 8.2
2015-Aug-22 05:33N 55°49' E 010°48'8 7.9
2015-Aug-22 04:33N 55°55' E 010°57'8 8.1
2015-Aug-22 03:33N 56°02' E 011°05'8 8.1
2015-Aug-22 02:33N 56°10' E 011°05'8 8.1
2015-Aug-22 01:33N 56°18' E 011°05'8 7.7
2015-Aug-22 00:33N 56°26' E 011°03'11 7.4
2015-Aug-21 23:03N 56°33' E 010°48'26 1.5
2015-Aug-21 06:15N 56°27' E 010°03'  
Track history (hours):
 
Tides and Currents Weather Stations Pressure Air Temp Water Temp Dewpoint Dewpoint Depression Visibility Wind Speed Wind Dir Waves Ship Positions

Iberica Hav

Last reported at 2015-Aug-29 18:33 UTC. Time now 2015-Aug-29 19:01 UTC.
Position N 53°55' E 009°12'.

Length 88 m; draft 2.7 m.

Type: Cargo ship. MMSI: 311034400.

Date/timePositionNaut miles runAvg speedWind from/ knotsBaromVisibWave heightAir tempDewpointWater temp
2015-Aug-29 18:33N 53°55' E 009°12'0 0.0
2015-Aug-29 17:30N 53°55' E 009°12'0 0.0
2015-Aug-29 16:33N 53°55' E 009°12'0 0.0
2015-Aug-29 15:30N 53°55' E 009°12'0 0.0
2015-Aug-29 14:33N 53°55' E 009°12'0 0.0
2015-Aug-29 13:30N 53°55' E 009°12'0 0.0
2015-Aug-29 12:30N 53°55' E 009°12'0 0.0
2015-Aug-29 11:33N 53°55' E 009°12'0 0.0
2015-Aug-29 10:30N 53°55' E 009°12'0 0.0
2015-Aug-29 09:33N 53°55' E 009°12'0 0.0
2015-Aug-29 08:27N 53°55' E 009°12'0 0.0
2015-Aug-29 07:33N 53°55' E 009°12'0 0.0
2015-Aug-29 06:33N 53°55' E 009°12'0 0.0
2015-Aug-29 05:33N 53°55' E 009°12'0 0.0
2015-Aug-29 04:30N 53°55' E 009°12'0 0.0
2015-Aug-29 03:33N 53°55' E 009°12'0 0.0
2015-Aug-29 02:33N 53°55' E 009°12'0 0.0
2015-Aug-29 01:33N 53°55' E 009°12'0 0.0
2015-Aug-29 00:30N 53°55' E 009°12'0 0.0
2015-Aug-28 23:21N 53°55' E 009°12'0 0.0
2015-Aug-28 22:30N 53°55' E 009°12'0 0.0
2015-Aug-28 21:33N 53°55' E 009°12'0 0.0
2015-Aug-28 20:33N 53°55' E 009°12'0 0.0
2015-Aug-28 19:33N 53°55' E 009°12'0 0.0
2015-Aug-28 18:33N 53°55' E 009°12'0 0.0
2015-Aug-28 17:33N 53°55' E 009°12'0 0.0
2015-Aug-28 16:33N 53°55' E 009°12'0 0.0
2015-Aug-28 15:33N 53°55' E 009°12'0 0.0
2015-Aug-28 14:33N 53°55' E 009°12'0 0.0
2015-Aug-28 13:27N 53°55' E 009°12'0 0.0
2015-Aug-28 12:33N 53°55' E 009°12'0 0.0
2015-Aug-28 11:33N 53°55' E 009°12'0 0.0
2015-Aug-28 10:33N 53°55' E 009°12'0 0.0
2015-Aug-28 09:33N 53°55' E 009°12'0 0.0
2015-Aug-28 08:33N 53°55' E 009°12'0 0.0
2015-Aug-28 07:33N 53°55' E 009°12'0 0.0
2015-Aug-28 06:15N 53°55' E 009°12'0 0.0
2015-Aug-28 05:30N 53°55' E 009°12'0 0.0
2015-Aug-28 04:30N 53°55' E 009°12'0 0.0
2015-Aug-28 03:33N 53°55' E 009°12'0 0.0
2015-Aug-28 02:33N 53°55' E 009°12'0 0.0
2015-Aug-28 01:33N 53°55' E 009°12'0 0.0
2015-Aug-28 00:33N 53°55' E 009°12'0 0.0
2015-Aug-27 23:33N 53°55' E 009°12'0 0.0
2015-Aug-27 22:33N 53°55' E 009°12'0 0.0
2015-Aug-27 21:33N 53°55' E 009°12'0 0.0
2015-Aug-27 20:33N 53°55' E 009°12'0 0.0
2015-Aug-27 19:33N 53°55' E 009°12'0 0.0
2015-Aug-27 18:33N 53°55' E 009°12'0 0.0
2015-Aug-27 17:33N 53°55' E 009°12'0 0.0
2015-Aug-27 16:29N 53°55' E 009°12'0 0.0
2015-Aug-27 15:33N 53°55' E 009°12'0 0.0
2015-Aug-27 14:33N 53°55' E 009°12'0 0.0
2015-Aug-27 13:33N 53°55' E 009°12'0 0.0
2015-Aug-27 12:29N 53°55' E 009°12'0 0.0
2015-Aug-27 11:30N 53°55' E 009°12'0 0.0
2015-Aug-27 10:33N 53°55' E 009°12'0 0.0
2015-Aug-27 09:33N 53°55' E 009°12'0 0.0
2015-Aug-27 08:30N 53°55' E 009°12'0 0.0
2015-Aug-27 07:27N 53°55' E 009°12'0 0.0
2015-Aug-27 06:33N 53°55' E 009°12'0 0.0
2015-Aug-27 05:32N 53°55' E 009°12'0 0.2
2015-Aug-27 04:33N 53°55' E 009°12'2 2.2
2015-Aug-27 03:33N 53°53' E 009°11'9 8.9
2015-Aug-27 02:33N 53°48' E 009°23'10 9.7
2015-Aug-27 01:33N 53°39' E 009°31'9 9.1
2015-Aug-27 00:34N 53°34' E 009°43'8 8.2
2015-Aug-26 23:34N 53°32' E 009°56'0 0.4
2015-Aug-26 22:31N 53°31' E 009°57'0 0.0
2015-Aug-26 21:19N 53°31' E 009°57'0 0.0
2015-Aug-26 20:31N 53°31' E 009°57'0 0.0
2015-Aug-26 19:28N 53°31' E 009°57'0 0.0
2015-Aug-26 18:31N 53°31' E 009°57'0 0.0
2015-Aug-26 17:28N 53°31' E 009°57'0 0.0
2015-Aug-26 16:31N 53°31' E 009°57'0 0.0
2015-Aug-26 15:31N 53°31' E 009°57'0 0.0
2015-Aug-26 14:28N 53°31' E 009°57'0 0.0
2015-Aug-26 13:28N 53°31' E 009°57'0 0.0
2015-Aug-26 12:32N 53°31' E 009°57'1 1.4
2015-Aug-26 11:33N 53°32' E 009°56'8 8.3
2015-Aug-26 10:33N 53°34' E 009°42'6 0.4
2015-Aug-25 20:17N 53°37' E 009°33'  
2015-Aug-23 07:28N 53°37' E 009°34'0 0.0
2015-Aug-23 06:31N 53°37' E 009°34'7 7.4
2015-Aug-23 05:33N 53°43' E 009°28'1010.3
2015-Aug-23 04:33N 53°51' E 009°18'6 5.7
2015-Aug-23 03:33N 53°54' E 009°09'6 6.0
2015-Aug-23 02:32N 53°58' E 009°16'10 8.3
2015-Aug-23 01:22N 54°08' E 009°20'9 7.4
2015-Aug-23 00:08N 54°12' E 009°33'5 6.2
2015-Aug-22 23:24N 54°16' E 009°38'5 5.6
2015-Aug-22 22:33N 54°19' E 009°43'5 5.1
2015-Aug-22 21:33N 54°22' E 009°51'8 7.8
2015-Aug-22 20:33N 54°22' E 010°04'3 2.6
2015-Aug-22 19:33N 54°22' E 010°08'2 1.8
2015-Aug-22 18:33N 54°23' E 010°11'8 8.4
2015-Aug-22 17:33N 54°30' E 010°19'9 8.9
2015-Aug-22 16:33N 54°34' E 010°33'9 8.3
2015-Aug-22 15:30N 54°36' E 010°47'11 7.8
2015-Aug-22 14:05N 54°47' E 010°51'4 7.4
2015-Aug-22 13:30N 54°51' E 010°52'7 7.3
2015-Aug-22 12:33N 54°57' E 010°57'8 7.9
2015-Aug-22 11:31N 55°05' E 011°02'7 7.5
2015-Aug-22 10:32N 55°12' E 011°05'24 7.8
2015-Aug-22 07:30N 55°34' E 010°49'7 7.0
2015-Aug-22 06:33N 55°40' E 010°46'8 8.2
2015-Aug-22 05:33N 55°49' E 010°48'8 7.9
2015-Aug-22 04:33N 55°55' E 010°57'8 8.1
2015-Aug-22 03:33N 56°02' E 011°05'8 8.1
2015-Aug-22 02:33N 56°10' E 011°05'8 8.1
2015-Aug-22 01:33N 56°18' E 011°05'8 7.7
2015-Aug-22 00:33N 56°26' E 011°03'11 7.4
2015-Aug-21 23:03N 56°33' E 010°48'26 1.5
2015-Aug-21 06:15N 56°27' E 010°03'  

Dump ship's entire track history